sensor_id;sensor_type;location;lat;lon;timestamp;P1;durP1;ratioP1;P2;durP2;ratioP2
77248;SDS011;66280;45.124;20.718;2023-08-30T00:06:31;14.90;;;9.77;;
77248;SDS011;66280;45.124;20.718;2023-08-30T00:16:32;13.57;;;9.50;;
77248;SDS011;66280;45.124;20.718;2023-08-30T00:26:34;17.33;;;8.77;;
77248;SDS011;66280;45.124;20.718;2023-08-30T00:36:37;15.43;;;9.13;;
77248;SDS011;66280;45.124;20.718;2023-08-30T00:46:38;15.17;;;8.90;;
77248;SDS011;66280;45.124;20.718;2023-08-30T00:56:39;12.77;;;8.63;;
77248;SDS011;66280;45.124;20.718;2023-08-30T01:06:41;14.30;;;7.83;;
77248;SDS011;66280;45.124;20.718;2023-08-30T01:16:42;13.88;;;9.43;;
77248;SDS011;66280;45.124;20.718;2023-08-30T01:27:01;15.23;;;8.30;;
77248;SDS011;66280;45.124;20.718;2023-08-30T01:37:10;12.10;;;8.05;;
77248;SDS011;66280;45.124;20.718;2023-08-30T01:47:10;15.07;;;9.83;;
77248;SDS011;66280;45.124;20.718;2023-08-30T01:57:12;12.57;;;9.17;;
77248;SDS011;66280;45.124;20.718;2023-08-30T02:07:23;15.47;;;9.97;;
77248;SDS011;66280;45.124;20.718;2023-08-30T02:17:26;13.93;;;10.02;;
77248;SDS011;66280;45.124;20.718;2023-08-30T02:27:27;13.90;;;9.83;;
77248;SDS011;66280;45.124;20.718;2023-08-30T02:37:27;13.95;;;9.95;;
77248;SDS011;66280;45.124;20.718;2023-08-30T02:47:28;14.70;;;9.70;;
77248;SDS011;66280;45.124;20.718;2023-08-30T02:57:29;16.30;;;10.87;;
77248;SDS011;66280;45.124;20.718;2023-08-30T03:07:29;20.05;;;11.52;;
77248;SDS011;66280;45.124;20.718;2023-08-30T03:17:30;15.60;;;10.17;;
77248;SDS011;66280;45.124;20.718;2023-08-30T03:27:32;17.98;;;10.80;;
77248;SDS011;66280;45.124;20.718;2023-08-30T03:37:33;19.40;;;11.67;;
77248;SDS011;66280;45.124;20.718;2023-08-30T03:47:35;17.50;;;11.13;;
77248;SDS011;66280;45.124;20.718;2023-08-30T03:57:36;20.80;;;11.00;;
77248;SDS011;66280;45.124;20.718;2023-08-30T04:07:36;18.43;;;11.23;;
77248;SDS011;66280;45.124;20.718;2023-08-30T04:17:37;19.53;;;12.33;;
77248;SDS011;66280;45.124;20.718;2023-08-30T04:27:38;20.00;;;12.43;;
77248;SDS011;66280;45.124;20.718;2023-08-30T04:37:38;21.50;;;13.77;;
77248;SDS011;66280;45.124;20.718;2023-08-30T04:47:40;22.13;;;12.53;;
77248;SDS011;66280;45.124;20.718;2023-08-30T04:57:41;23.03;;;12.70;;
77248;SDS011;66280;45.124;20.718;2023-08-30T05:07:41;18.27;;;11.33;;
77248;SDS011;66280;45.124;20.718;2023-08-30T05:17:42;22.30;;;12.17;;
77248;SDS011;66280;45.124;20.718;2023-08-30T05:27:43;18.30;;;12.03;;
77248;SDS011;66280;45.124;20.718;2023-08-30T05:37:43;19.13;;;13.50;;
77248;SDS011;66280;45.124;20.718;2023-08-30T05:48:13;21.63;;;13.73;;
77248;SDS011;66280;45.124;20.718;2023-08-30T05:58:14;21.73;;;12.83;;
77248;SDS011;66280;45.124;20.718;2023-08-30T06:08:15;17.23;;;12.87;;
77248;SDS011;66280;45.124;20.718;2023-08-30T06:18:15;18.23;;;11.23;;
77248;SDS011;66280;45.124;20.718;2023-08-30T06:28:16;19.17;;;12.27;;
77248;SDS011;66280;45.124;20.718;2023-08-30T06:38:17;18.30;;;13.00;;
77248;SDS011;66280;45.124;20.718;2023-08-30T06:48:17;20.53;;;12.87;;
77248;SDS011;66280;45.124;20.718;2023-08-30T06:58:18;18.90;;;14.07;;
77248;SDS011;66280;45.124;20.718;2023-08-30T07:08:18;20.07;;;14.40;;
77248;SDS011;66280;45.124;20.718;2023-08-30T07:18:19;19.40;;;12.55;;
77248;SDS011;66280;45.124;20.718;2023-08-30T07:28:20;17.97;;;13.00;;
77248;SDS011;66280;45.124;20.718;2023-08-30T07:38:20;21.80;;;13.00;;
77248;SDS011;66280;45.124;20.718;2023-08-30T07:48:21;22.15;;;13.38;;
77248;SDS011;66280;45.124;20.718;2023-08-30T07:58:22;19.30;;;13.17;;
77248;SDS011;66280;45.124;20.718;2023-08-30T08:08:22;17.98;;;13.90;;
77248;SDS011;66280;45.124;20.718;2023-08-30T08:18:23;20.23;;;13.43;;
77248;SDS011;66280;45.124;20.718;2023-08-30T08:28:23;24.60;;;13.90;;
77248;SDS011;66280;45.124;20.718;2023-08-30T08:38:24;18.98;;;12.98;;
77248;SDS011;66280;45.124;20.718;2023-08-30T08:48:25;17.63;;;13.88;;
77248;SDS011;66280;45.124;20.718;2023-08-30T08:58:26;18.87;;;13.63;;
77248;SDS011;66280;45.124;20.718;2023-08-30T09:08:27;20.10;;;14.40;;
77248;SDS011;66280;45.124;20.718;2023-08-30T09:18:28;19.63;;;13.27;;
77248;SDS011;66280;45.124;20.718;2023-08-30T09:28:28;23.60;;;14.57;;
77248;SDS011;66280;45.124;20.718;2023-08-30T09:38:29;60.53;;;30.73;;
77248;SDS011;66280;45.124;20.718;2023-08-30T09:48:30;23.50;;;14.55;;
77248;SDS011;66280;45.124;20.718;2023-08-30T09:58:32;18.27;;;13.33;;
77248;SDS011;66280;45.124;20.718;2023-08-30T10:08:33;22.47;;;14.47;;
77248;SDS011;66280;45.124;20.718;2023-08-30T10:18:35;23.38;;;17.17;;
77248;SDS011;66280;45.124;20.718;2023-08-30T10:28:36;19.93;;;15.63;;
77248;SDS011;66280;45.124;20.718;2023-08-30T11:08:43;24.10;;;17.80;;
77248;SDS011;66280;45.124;20.718;2023-08-30T11:18:44;24.30;;;16.90;;
77248;SDS011;66280;45.124;20.718;2023-08-30T11:28:44;20.25;;;16.17;;
77248;SDS011;66280;45.124;20.718;2023-08-30T11:38:45;14.70;;;12.83;;
77248;SDS011;66280;45.124;20.718;2023-08-30T11:48:46;6.30;;;5.63;;
77248;SDS011;66280;45.124;20.718;2023-08-30T11:58:47;4.77;;;4.37;;
77248;SDS011;66280;45.124;20.718;2023-08-30T12:08:48;4.17;;;3.77;;
77248;SDS011;66280;45.124;20.718;2023-08-30T12:18:49;5.87;;;4.37;;
77248;SDS011;66280;45.124;20.718;2023-08-30T12:28:49;3.90;;;3.58;;
77248;SDS011;66280;45.124;20.718;2023-08-30T12:38:50;3.78;;;3.47;;
77248;SDS011;66280;45.124;20.718;2023-08-30T12:48:51;5.40;;;4.93;;
77248;SDS011;66280;45.124;20.718;2023-08-30T12:58:51;5.67;;;5.17;;
77248;SDS011;66280;45.124;20.718;2023-08-30T13:08:52;5.72;;;5.20;;
77248;SDS011;66280;45.124;20.718;2023-08-30T13:18:52;5.03;;;4.55;;
77248;SDS011;66280;45.124;20.718;2023-08-30T13:28:53;5.53;;;5.03;;
77248;SDS011;66280;45.124;20.718;2023-08-30T13:38:53;5.87;;;5.03;;
77248;SDS011;66280;45.124;20.718;2023-08-30T13:48:54;5.07;;;4.68;;
77248;SDS011;66280;45.124;20.718;2023-08-30T13:58:55;4.40;;;4.00;;
77248;SDS011;66280;45.124;20.718;2023-08-30T14:08:56;4.67;;;4.27;;
77248;SDS011;66280;45.124;20.718;2023-08-30T14:18:58;6.20;;;4.70;;
77248;SDS011;66280;45.124;20.718;2023-08-30T14:28:59;4.88;;;4.50;;
77248;SDS011;66280;45.124;20.718;2023-08-30T14:38:59;4.13;;;3.40;;
77248;SDS011;66280;45.124;20.718;2023-08-30T14:49:00;4.43;;;3.70;;
77248;SDS011;66280;45.124;20.718;2023-08-30T14:59:01;5.20;;;4.45;;
77248;SDS011;66280;45.124;20.718;2023-08-30T15:09:01;11.18;;;5.30;;
77248;SDS011;66280;45.124;20.718;2023-08-30T15:19:02;11.70;;;5.60;;
77248;SDS011;66280;45.124;20.718;2023-08-30T15:29:03;8.48;;;4.93;;
77248;SDS011;66280;45.124;20.718;2023-08-30T15:39:03;4.60;;;4.20;;
77248;SDS011;66280;45.124;20.718;2023-08-30T15:49:04;7.03;;;4.57;;
77248;SDS011;66280;45.124;20.718;2023-08-30T15:59:04;5.13;;;4.63;;
77248;SDS011;66280;45.124;20.718;2023-08-30T16:09:05;5.37;;;4.33;;
77248;SDS011;66280;45.124;20.718;2023-08-30T16:29:06;7.55;;;6.75;;
77248;SDS011;66280;45.124;20.718;2023-08-30T16:39:07;5.95;;;5.45;;
77248;SDS011;66280;45.124;20.718;2023-08-30T16:49:07;8.57;;;7.18;;
77248;SDS011;66280;45.124;20.718;2023-08-30T16:59:08;7.65;;;6.82;;
77248;SDS011;66280;45.124;20.718;2023-08-30T17:09:08;8.02;;;5.85;;
77248;SDS011;66280;45.124;20.718;2023-08-30T17:19:09;10.27;;;5.47;;
77248;SDS011;66280;45.124;20.718;2023-08-30T17:29:09;28.33;;;7.10;;
77248;SDS011;66280;45.124;20.718;2023-08-30T17:39:10;18.80;;;6.50;;
77248;SDS011;66280;45.124;20.718;2023-08-30T17:49:10;8.90;;;6.68;;
77248;SDS011;66280;45.124;20.718;2023-08-30T17:59:12;7.22;;;6.20;;
77248;SDS011;66280;45.124;20.718;2023-08-30T18:09:12;6.90;;;6.10;;
77248;SDS011;66280;45.124;20.718;2023-08-30T18:19:13;9.50;;;6.18;;
77248;SDS011;66280;45.124;20.718;2023-08-30T18:29:14;7.93;;;6.77;;
77248;SDS011;66280;45.124;20.718;2023-08-30T18:39:15;9.70;;;6.97;;
77248;SDS011;66280;45.124;20.718;2023-08-30T18:49:15;11.75;;;8.50;;
77248;SDS011;66280;45.124;20.718;2023-08-30T18:59:16;9.33;;;6.60;;
77248;SDS011;66280;45.124;20.718;2023-08-30T19:09:17;10.37;;;6.63;;
77248;SDS011;66280;45.124;20.718;2023-08-30T19:19:17;11.60;;;7.33;;
77248;SDS011;66280;45.124;20.718;2023-08-30T19:29:18;7.73;;;6.93;;
77248;SDS011;66280;45.124;20.718;2023-08-30T19:39:19;12.35;;;7.55;;
77248;SDS011;66280;45.124;20.718;2023-08-30T19:49:19;9.97;;;6.67;;
77248;SDS011;66280;45.124;20.718;2023-08-30T19:59:20;11.20;;;8.03;;
77248;SDS011;66280;45.124;20.718;2023-08-30T20:09:21;16.70;;;10.40;;
77248;SDS011;66280;45.124;20.718;2023-08-30T20:19:21;19.37;;;13.03;;
77248;SDS011;66280;45.124;20.718;2023-08-30T20:29:22;19.17;;;10.93;;
77248;SDS011;66280;45.124;20.718;2023-08-30T20:39:23;8.03;;;6.57;;
77248;SDS011;66280;45.124;20.718;2023-08-30T20:49:24;7.03;;;5.30;;
77248;SDS011;66280;45.124;20.718;2023-08-30T20:59:24;7.00;;;4.68;;
77248;SDS011;66280;45.124;20.718;2023-08-30T21:09:25;4.00;;;3.37;;
77248;SDS011;66280;45.124;20.718;2023-08-30T21:19:26;6.20;;;3.67;;
77248;SDS011;66280;45.124;20.718;2023-08-30T21:29:26;2.95;;;2.75;;
77248;SDS011;66280;45.124;20.718;2023-08-30T21:39:27;4.82;;;3.17;;
77248;SDS011;66280;45.124;20.718;2023-08-30T21:49:27;6.75;;;4.90;;
77248;SDS011;66280;45.124;20.718;2023-08-30T21:59:28;5.82;;;5.22;;
77248;SDS011;66280;45.124;20.718;2023-08-30T22:09:29;7.83;;;5.20;;
77248;SDS011;66280;45.124;20.718;2023-08-30T22:19:29;6.43;;;5.30;;
77248;SDS011;66280;45.124;20.718;2023-08-30T22:29:30;5.93;;;5.37;;
77248;SDS011;66280;45.124;20.718;2023-08-30T22:39:31;5.73;;;4.77;;
77248;SDS011;66280;45.124;20.718;2023-08-30T22:49:31;5.63;;;5.13;;
77248;SDS011;66280;45.124;20.718;2023-08-30T22:59:32;8.93;;;4.00;;
77248;SDS011;66280;45.124;20.718;2023-08-30T23:09:33;5.23;;;4.73;;
77248;SDS011;66280;45.124;20.718;2023-08-30T23:19:33;10.20;;;6.38;;
77248;SDS011;66280;45.124;20.718;2023-08-30T23:29:34;9.67;;;7.50;;
77248;SDS011;66280;45.124;20.718;2023-08-30T23:39:34;8.35;;;7.43;;
77248;SDS011;66280;45.124;20.718;2023-08-30T23:49:35;8.73;;;7.75;;
77248;SDS011;66280;45.124;20.718;2023-08-30T23:59:35;10.20;;;7.90;;
